createdAt,value
2023-01-13T00:00:31.524Z,98295.25
2023-01-13T00:05:36.215Z,98297.94
2023-01-13T00:10:39.423Z,98294.56
2023-01-13T00:15:42.327Z,98301.69
2023-01-13T00:20:46.588Z,98291.31
2023-01-13T00:25:49.327Z,98293.78
2023-01-13T00:30:52.343Z,98295.56
2023-01-13T00:36:01.071Z,98296.84
2023-01-13T00:41:05.463Z,98283.78
2023-01-13T00:46:10.064Z,98280.97
2023-01-13T00:51:17.068Z,98271.19
2023-01-13T00:56:30.561Z,98266.72
2023-01-13T01:01:41.712Z,98253.06
2023-01-13T01:06:45.947Z,98261.25
2023-01-13T01:11:48.754Z,98263.78
2023-01-13T01:16:51.680Z,98287.59
2023-01-13T01:21:55.913Z,98266.22
2023-01-13T01:26:58.725Z,98270.88
2023-01-13T01:32:01.510Z,98280.47
2023-01-13T01:37:05.804Z,98286.53
2023-01-13T01:42:28.223Z,98286.41
2023-01-13T01:47:32.389Z,98288.94
2023-01-13T01:52:38.783Z,98284.72
2023-01-13T01:57:45.357Z,98274.69
2023-01-13T02:02:49.628Z,98306.53
2023-01-13T02:07:56.148Z,98284.94
2023-01-13T02:13:01.229Z,98296.56
2023-01-13T02:18:27.327Z,98289.44
2023-01-13T02:24:17.070Z,98302.50
2023-01-13T02:30:12.715Z,98294.75
2023-01-13T02:35:21.449Z,98298.13
2023-01-13T02:40:27.193Z,98301.69
2023-01-13T02:45:33.522Z,98297.84
2023-01-13T02:50:40.554Z,98294.16
2023-01-13T02:55:46.486Z,98292.16
2023-01-13T03:00:50.579Z,98297.59
2023-01-13T03:05:55.391Z,98285.69
2023-01-13T03:11:03.757Z,98277.50
2023-01-13T03:16:12.875Z,98283.78
2023-01-13T03:21:21.168Z,98280.50
2023-01-13T03:26:33.076Z,98267.75
2023-01-13T03:31:42.380Z,98266.81
2023-01-13T03:36:45.348Z,98283.34
2023-01-13T03:41:52.977Z,98287.47
2023-01-13T03:47:04.274Z,98283.63
2023-01-13T03:52:09.828Z,98267.41
2023-01-13T03:57:15.684Z,98280.41
2023-01-13T04:02:23.630Z,98272.81
2023-01-13T04:07:34.038Z,98276.97
2023-01-13T04:12:53.624Z,98289.19
2023-01-13T04:18:03.315Z,98288.78
2023-01-13T04:23:05.968Z,98283.88
2023-01-13T04:28:08.824Z,98289.31
2023-01-13T04:33:13.564Z,98294.06
2023-01-13T04:38:18.577Z,98289.59
2023-01-13T04:43:21.248Z,98285.72
2023-01-13T04:48:25.315Z,98272.78
2023-01-13T04:53:27.965Z,98282.88
2023-01-13T04:58:30.609Z,98291.34
2023-01-13T05:03:34.679Z,98287.47
2023-01-13T05:08:37.478Z,98268.13
2023-01-13T05:13:57.685Z,98271.19
2023-01-13T05:19:01.720Z,98265.66
2023-01-13T05:24:22.131Z,98267.09
2023-01-13T05:29:24.888Z,98276.41
2023-01-13T05:34:28.976Z,98280.13
2023-01-13T05:39:51.951Z,98291.25
2023-01-13T05:44:54.624Z,98308.34
2023-01-13T05:49:58.665Z,98297.06
2023-01-13T05:55:01.321Z,98288.41
2023-01-13T06:00:04.743Z,98302.00
2023-01-13T06:05:15.787Z,98311.50
2023-01-13T06:10:18.815Z,98323.47
2023-01-13T06:15:22.022Z,98318.56
2023-01-13T06:20:26.453Z,98318.75
2023-01-13T06:25:39.518Z,98314.03
2023-01-13T06:30:44.441Z,98320.22
2023-01-13T06:35:52.405Z,98324.13
2023-01-13T06:40:55.386Z,98321.06
2023-01-13T06:45:58.125Z,98339.19
2023-01-13T06:51:02.147Z,98335.91
2023-01-13T06:56:04.998Z,98330.78
2023-01-13T07:01:07.870Z,98331.00
2023-01-13T07:06:12.019Z,98337.59
2023-01-13T07:11:14.767Z,98330.00
2023-01-13T07:16:17.517Z,98339.50
2023-01-13T07:21:22.042Z,98340.50
2023-01-13T07:26:24.738Z,98347.91
2023-01-13T07:31:27.552Z,98337.66
2023-01-13T07:36:31.711Z,98341.38
2023-01-13T07:41:52.212Z,98347.97
2023-01-13T07:46:54.861Z,98360.91
2023-01-13T07:51:58.871Z,98358.25
2023-01-13T07:57:01.580Z,98363.81
2023-01-13T08:02:04.471Z,98366.50
2023-01-13T08:07:08.676Z,98376.16
2023-01-13T08:12:29.059Z,98374.63
2023-01-13T08:17:31.804Z,98376.34
2023-01-13T08:22:35.882Z,98389.44
2023-01-13T08:27:39.868Z,98394.94
2023-01-13T08:32:44.766Z,98395.06
2023-01-13T08:37:49.172Z,98395.69
2023-01-13T08:42:53.803Z,98408.91
2023-01-13T08:47:57.932Z,98403.22
2023-01-13T08:53:02.090Z,98418.19
2023-01-13T08:58:15.274Z,98408.06
2023-01-13T09:03:18.688Z,98429.66
2023-01-13T09:08:22.708Z,98424.50
2023-01-13T09:13:25.570Z,98430.13
2023-01-13T09:18:28.283Z,98439.22
2023-01-13T09:23:32.338Z,98423.09
2023-01-13T09:28:35.005Z,98442.03
2023-01-13T09:34:06.785Z,98447.22
2023-01-13T09:39:10.818Z,98452.72
2023-01-13T09:44:18.912Z,98460.78
2023-01-13T09:49:23.904Z,98465.84
2023-01-13T09:54:33.030Z,98453.22
2023-01-13T09:59:36.819Z,98465.03
2023-01-13T10:04:39.609Z,98463.91
2023-01-13T10:09:48.938Z,98465.44
2023-01-13T10:14:54.291Z,98459.16
2023-01-13T10:20:00.200Z,98458.41
2023-01-13T10:25:20.902Z,98468.16
2023-01-13T10:30:31.043Z,98464.56
2023-01-13T10:35:53.657Z,98462.00
2023-01-13T10:40:59.459Z,98463.34
2023-01-13T10:46:05.718Z,98476.63
2023-01-13T10:51:23.226Z,98465.72
2023-01-13T10:56:30.905Z,98490.38
2023-01-13T11:01:33.647Z,98482.69
2023-01-13T11:06:37.599Z,98487.94
2023-01-13T11:11:44.766Z,98486.53
2023-01-13T11:16:53.788Z,98477.25
2023-01-13T11:22:01.775Z,98473.66
2023-01-13T11:27:09.389Z,98490.78
2023-01-13T11:32:14.441Z,98490.25
2023-01-13T11:37:20.206Z,98491.28
2023-01-13T11:42:27.666Z,98484.19
2023-01-13T11:47:30.788Z,98478.66
2023-01-13T11:52:46.897Z,98479.19
2023-01-13T11:58:18.129Z,98473.38
2023-01-13T12:03:25.860Z,98484.66
2023-01-13T12:08:47.045Z,98487.34
2023-01-13T12:14:02.317Z,98481.00
2023-01-13T12:19:18.186Z,98477.94
2023-01-13T12:24:27.095Z,98475.16
2023-01-13T12:29:34.138Z,98473.06
2023-01-13T12:34:46.625Z,98484.31
2023-01-13T12:40:05.670Z,98482.63
2023-01-13T12:45:22.357Z,98482.47
2023-01-13T12:50:42.238Z,98497.34
2023-01-13T12:55:45.062Z,98511.50
2023-01-13T13:01:13.720Z,98511.41
2023-01-13T13:06:19.859Z,98543.47
2023-01-13T13:11:56.115Z,98564.63
2023-01-13T13:17:01.056Z,98576.72
2023-01-13T13:22:43.918Z,98567.78
2023-01-13T13:27:49.898Z,98580.16
2023-01-13T13:33:14.548Z,98588.47
2023-01-13T13:38:42.963Z,98583.00
2023-01-13T13:44:06.626Z,98585.13
2023-01-13T13:49:11.783Z,98597.25
2023-01-13T13:54:16.327Z,98610.16
2023-01-13T13:59:21.056Z,98611.84
2023-01-13T14:04:26.502Z,98613.59
2023-01-13T14:09:39.651Z,98637.31
2023-01-13T14:14:44.611Z,98644.59
2023-01-13T14:19:54.238Z,98642.56
2023-01-13T14:24:58.404Z,98650.06
2023-01-13T14:30:01.933Z,98655.75
2023-01-13T14:35:09.045Z,98655.81
2023-01-13T14:40:45.513Z,98678.78
2023-01-13T14:45:57.079Z,98682.91
2023-01-13T14:51:02.601Z,98687.22
2023-01-13T14:56:40.532Z,98687.38
2023-01-13T15:01:43.621Z,98693.69
2023-01-13T15:06:52.479Z,98699.91
2023-01-13T15:11:56.330Z,98714.75
2023-01-13T15:16:59.096Z,98732.69
2023-01-13T15:22:03.285Z,98735.47
2023-01-13T15:27:17.731Z,98742.50
2023-01-13T15:32:21.636Z,98774.00
2023-01-13T15:37:25.704Z,98785.63
2023-01-13T15:42:45.978Z,98786.31
2023-01-13T15:47:48.686Z,98798.00
2023-01-13T15:52:52.816Z,98811.19
2023-01-13T15:57:55.515Z,98812.81
2023-01-13T16:02:59.712Z,98811.00
2023-01-13T16:08:03.820Z,98812.41
2023-01-13T16:13:06.519Z,98820.34
2023-01-13T16:18:15.865Z,98822.84
2023-01-13T16:23:20.808Z,98825.91
2023-01-13T16:28:26.725Z,98829.44
2023-01-13T16:33:29.658Z,98845.72
2023-01-13T16:38:33.750Z,98855.28
2023-01-13T16:43:36.818Z,98856.44
2023-01-13T16:48:39.710Z,98873.63
2023-01-13T16:53:43.889Z,98878.38
2023-01-13T16:58:47.034Z,98897.53
2023-01-13T17:03:51.433Z,98893.28
2023-01-13T17:08:57.489Z,98899.66
2023-01-13T17:14:00.707Z,98904.88
2023-01-13T17:19:18.347Z,98906.50
2023-01-13T17:24:25.978Z,98923.97
2023-01-13T17:29:29.532Z,98920.78
2023-01-13T17:34:32.574Z,98927.66
2023-01-13T17:39:37.917Z,98940.28
2023-01-13T17:44:41.766Z,98933.88
2023-01-13T17:49:44.456Z,98957.78
2023-01-13T17:54:48.661Z,98950.38
2023-01-13T17:59:51.563Z,98963.91
2023-01-13T18:04:54.298Z,98964.97
2023-01-13T18:09:58.411Z,98959.75
2023-01-13T18:15:01.136Z,98971.22
2023-01-13T18:20:21.428Z,98972.88
2023-01-13T18:25:43.213Z,98972.88
2023-01-13T18:30:46.006Z,98991.34
2023-01-13T18:35:48.913Z,98997.22
2023-01-13T18:40:53.055Z,98999.00
2023-01-13T18:45:55.929Z,99013.78
2023-01-13T18:50:58.711Z,99001.72
2023-01-13T18:56:05.455Z,99001.72
2023-01-13T19:01:37.043Z,99002.81
2023-01-13T19:06:47.633Z,99029.47
2023-01-13T19:11:51.964Z,99024.53
2023-01-13T19:16:54.731Z,99042.06
2023-01-13T19:21:57.518Z,99034.56
2023-01-13T19:27:01.695Z,99057.03
2023-01-13T19:32:06.033Z,99056.25
2023-01-13T19:37:09.055Z,99065.63
2023-01-13T19:42:31.134Z,99077.69
2023-01-13T19:47:34.060Z,99079.06
2023-01-13T19:52:36.791Z,99077.41
2023-01-13T19:57:41.144Z,99088.16
2023-01-13T20:02:48.947Z,99078.97
2023-01-13T20:07:51.933Z,99094.38
2023-01-13T20:12:56.055Z,99104.78
2023-01-13T20:18:00.445Z,99108.69
2023-01-13T20:23:03.165Z,99101.81
2023-01-13T20:28:07.356Z,99109.94
2023-01-13T20:33:10.095Z,99119.22
2023-01-13T20:38:13.007Z,99120.31
2023-01-13T20:43:17.754Z,99129.22
2023-01-13T20:48:20.805Z,99131.38
2023-01-13T20:53:23.541Z,99154.72
2023-01-13T20:58:27.601Z,99151.91
2023-01-13T21:03:30.432Z,99166.59
2023-01-13T21:08:33.193Z,99174.56
2023-01-13T21:13:54.938Z,99188.19
2023-01-13T21:19:10.660Z,99171.13
2023-01-13T21:24:13.962Z,99186.91
2023-01-13T21:29:18.063Z,99176.09
2023-01-13T21:34:20.893Z,99175.00
2023-01-13T21:39:23.629Z,99177.66
2023-01-13T21:44:45.214Z,99179.75
2023-01-13T21:49:47.937Z,99204.44
2023-01-13T21:55:08.146Z,99206.16
2023-01-13T22:00:13.717Z,99205.50
2023-01-13T22:05:18.801Z,99219.00
2023-01-13T22:10:23.484Z,99208.31
2023-01-13T22:15:30.577Z,99207.13
2023-01-13T22:20:33.305Z,99224.63
2023-01-13T22:25:36.054Z,99216.53
2023-01-13T22:30:40.288Z,99215.69
2023-01-13T22:35:42.970Z,99222.19
2023-01-13T22:40:45.650Z,99224.97
2023-01-13T22:45:58.663Z,99231.56
2023-01-13T22:51:05.583Z,99239.19
2023-01-13T22:56:08.937Z,99247.91
2023-01-13T23:01:14.409Z,99255.28
2023-01-13T23:06:18.626Z,99243.31
2023-01-13T23:11:23.448Z,99250.09
2023-01-13T23:16:28.809Z,99254.75
2023-01-13T23:21:33.253Z,99251.22
2023-01-13T23:26:36.414Z,99275.28
2023-01-13T23:31:41.018Z,99284.53
2023-01-13T23:36:44.436Z,99281.69
2023-01-13T23:41:47.205Z,99295.13
2023-01-13T23:46:51.240Z,99303.38
2023-01-13T23:51:54.153Z,99302.97
2023-01-13T23:56:57.324Z,99283.38
